METAR AND TAF INFORMATION
METAR FOR KDAL
KDAL 130753Z 18006KT 10SM BKN250 19/11 A3018 RMK AO2 SLP213 T01890111
KDAL 130653Z 18005KT 10SM BKN250 19/11 A3018 RMK AO2 SLP215 T01940106
KDAL 130553Z 16010KT 10SM BKN250 20/10 A3019 RMK AO2 SLP216 T02000100 10244 20200 402670100 50000
KDAL 130907Z 1309/1406 18011KT P6SM FEW200 OVC300
FM131700 19015G30KT P6SM FEW200
FM140100 16017KT P6SM SCT200

 AIRPORT MAP

 RUNWAY INFORMATION
Runway 13L Runway length 7752 ft Runway width 150 ft
Runway elevation 477 ft Runway displaced threshold 0 ft Runway heading 136
Runway 31R Runway length 7752 ft Runway width 150 ft
Runway elevation 487 ft Runway displaced threshold 0 ft Runway heading 316
Runway 13R Runway length 8800 ft Runway width 150 ft
Runway elevation 476 ft Runway displaced threshold 490 ft Runway heading 136
Runway 31L Runway length 8800 ft Runway width 150 ft
Runway elevation 476 ft Runway displaced threshold 0 ft Runway heading 316
Runway 18 Runway length 6147 ft Runway width 150 ft
Runway elevation 480 ft Runway displaced threshold 0 ft Runway heading 186
Runway 36 Runway length 6147 ft Runway width 150 ft
Runway elevation 482 ft Runway displaced threshold 0 ft Runway heading 6

 AIRPORT FREQUENCIES
Type APP Name RGNL APP Frequency 124.3 MHZ
Type ATIS Name ATIS Frequency 120.15 MHZ
Type CLD Name CLNC DEL Frequency 127.9 MHZ
Type DEP Name RGNL DEP Frequency 118.55 MHZ
Type GND Name GND Frequency 121.75 MHZ
Type RDO Name FORT WORTH Frequency 122.3 MHZ
Type TWR Name LOVE TWR Frequency 118.7 MHZ
Type UNIC Name UNICOM Frequency 122.95 MHZ

 AIRPORT NEAR NAVIGATION AIDS
Type NDB Name Conis Frequency 275 KHZ

-